Time;durP1;ratioP1;P1;durP2;ratioP2;P2;SDS_P1;SDS_P2;PMS_P1;PMS_P2;Temp;Humidity;BMP_temperature;BMP_pressure;BME280_temperature;BME280_humidity;BME280_pressure;Samples;Min_cycle;Max_cycle;Signal;HPM_P1;HPM_P2
2021/06/28 00:00:32;;;;;;;11.33;10.30;;;23.10;99.90;;;;;;5010796;28;20471;-88
2021/06/28 00:03:05;;;;;;;13.07;11.77;;;23.20;99.90;;;;;;4994335;28;20527;-86
2021/06/28 00:05:42;;;;;;;13.70;12.40;;;23.10;99.90;;;;;;4994390;28;20451;-88
2021/06/28 00:08:26;;;;;;;12.97;11.87;;;23.00;99.90;;;;;;5005744;28;20454;-90
2021/06/28 00:11:10;;;;;;;12.03;10.93;;;22.80;99.90;;;;;;5005826;28;20442;-86
2021/06/28 00:13:43;;;;;;;12.73;11.53;;;22.70;99.90;;;;;;5007155;28;20486;-87
2021/06/28 00:16:25;;;;;;;13.53;12.33;;;22.70;99.90;;;;;;5008506;28;20557;-87
2021/06/28 00:19:02;;;;;;;13.70;12.50;;;22.80;99.90;;;;;;5007482;28;20471;-91
2021/06/28 00:21:38;;;;;;;15.73;14.03;;;22.70;99.90;;;;;;4803056;22;10001964;-88
2021/06/28 00:24:28;;;;;;;13.20;12.00;;;22.60;99.90;;;;;;5026943;28;20203;-89
2021/06/28 00:27:01;;;;;;;12.47;11.37;;;22.40;99.90;;;;;;5002024;28;20468;-87
2021/06/28 00:29:31;;;;;;;13.73;12.33;;;22.30;99.90;;;;;;5015248;28;20470;-88
2021/06/28 00:32:07;;;;;;;12.33;11.20;;;22.30;99.90;;;;;;5020963;28;20558;-90
2021/06/28 00:34:51;;;;;;;12.90;11.60;;;22.20;99.90;;;;;;5007093;28;20496;-84
2021/06/28 00:37:23;;;;;;;13.93;12.60;;;22.20;99.90;;;;;;5019065;28;20442;-88
2021/06/28 00:39:56;;;;;;;12.87;11.57;;;22.30;99.90;;;;;;5008130;28;20477;-90
2021/06/28 00:42:29;;;;;;;13.80;12.50;;;22.50;99.90;;;;;;5010740;28;20545;-87
2021/06/28 00:45:30;;;;;;;14.87;13.20;;;22.30;99.90;;;;;;5000261;28;20487;-87
2021/06/28 00:48:19;;;;;;;14.53;13.13;;;22.30;99.90;;;;;;4993865;28;20525;-87
2021/06/28 00:50:54;;;;;;;14.40;13.10;;;22.30;99.90;;;;;;5001926;28;20552;-89
2021/06/28 00:53:27;;;;;;;14.13;12.90;;;22.30;99.90;;;;;;5025805;28;20444;-91
2021/06/28 00:56:10;;;;;;;14.53;13.23;;;22.50;99.90;;;;;;5009908;28;20468;-89
2021/06/28 00:59:01;;;;;;;13.93;12.63;;;22.40;99.90;;;;;;5010138;28;20541;-91
2021/06/28 01:01:34;;;;;;;16.17;13.77;;;22.30;99.90;;;;;;5012069;28;20556;-88
2021/06/28 01:04:06;;;;;;;14.50;13.00;;;22.30;99.90;;;;;;4999975;28;20477;-85
2021/06/28 01:06:46;;;;;;;15.97;14.57;;;22.40;99.90;;;;;;4999347;28;20488;-88
2021/06/28 01:09:24;;;;;;;14.73;13.37;;;22.40;99.90;;;;;;5029647;28;20473;-87
2021/06/28 01:11:57;;;;;;;13.60;12.40;;;22.30;99.90;;;;;;5012556;28;20458;-87
2021/06/28 01:14:30;;;;;;;16.30;14.80;;;22.20;99.90;;;;;;5013606;28;20511;-88
2021/06/28 01:17:04;;;;;;;15.40;13.83;;;22.10;99.90;;;;;;5032817;28;20500;-92
2021/06/28 01:19:58;;;;;;;15.10;12.73;;;21.90;99.90;;;;;;5011395;28;20477;-88
2021/06/28 01:22:35;;;;;;;13.77;12.57;;;22.00;99.90;;;;;;5020921;28;20496;-87
2021/06/28 01:25:07;;;;;;;14.73;13.40;;;22.00;99.90;;;;;;4982696;28;20982;-85
2021/06/28 01:27:36;;;;;;;15.43;14.03;;;22.00;99.90;;;;;;5016333;28;20450;-88
2021/06/28 01:30:13;;;;;;;13.40;12.17;;;22.00;99.90;;;;;;4999171;28;20489;-85
2021/06/28 01:32:45;;;;;;;15.30;13.80;;;22.10;99.90;;;;;;4997414;28;20469;-88
2021/06/28 01:35:17;;;;;;;16.83;14.57;;;22.30;99.90;;;;;;4995855;28;21003;-87
2021/06/28 01:37:46;;;;;;;16.30;14.63;;;22.50;99.90;;;;;;5010795;28;20462;-87
2021/06/28 01:40:20;;;;;;;15.10;13.80;;;22.40;99.90;;;;;;4992527;28;20476;-86
2021/06/28 01:42:59;;;;;;;17.90;16.20;;;22.50;99.90;;;;;;4993955;28;20447;-88
2021/06/28 01:45:28;;;;;;;16.93;15.43;;;22.50;99.90;;;;;;4993713;28;20461;-86
2021/06/28 01:47:59;;;;;;;16.63;15.00;;;22.30;99.90;;;;;;4996888;28;21444;-86
2021/06/28 01:50:39;;;;;;;16.10;14.60;;;22.20;99.90;;;;;;4994917;28;20477;-86
2021/06/28 01:53:13;;;;;;;14.47;13.03;;;21.90;99.90;;;;;;4993485;28;20999;-87
2021/06/28 01:56:21;;;;;;;14.60;13.10;;;21.90;99.90;;;;;;5086155;27;20545;-86
2021/06/28 01:59:01;;;;;;;16.33;14.67;;;21.90;99.90;;;;;;5073712;28;20567;-86
2021/06/28 02:01:41;;;;;;;17.50;15.00;;;22.00;99.90;;;;;;5043723;28;20456;-86
2021/06/28 02:04:19;;;;;;;16.20;14.67;;;22.20;99.90;;;;;;5040703;28;20510;-88
2021/06/28 02:07:10;;;;;;;16.47;14.97;;;22.30;99.90;;;;;;5033410;28;20766;-85
2021/06/28 02:09:40;;;;;;;15.93;14.53;;;22.20;99.90;;;;;;5047717;28;20472;-87
2021/06/28 02:12:10;;;;;;;14.83;13.43;;;22.10;99.90;;;;;;5047523;28;20452;-84
2021/06/28 02:14:38;;;;;;;16.20;14.60;;;22.00;99.90;;;;;;5044038;28;20484;-87
2021/06/28 02:17:08;;;;;;;17.43;14.80;;;22.00;99.90;;;;;;5043070;28;21247;-85
2021/06/28 02:19:44;;;;;;;16.50;14.80;;;22.00;99.90;;;;;;5041702;28;20479;-86
2021/06/28 02:22:31;;;;;;;15.03;13.57;;;22.00;99.90;;;;;;5041829;28;20452;-90
2021/06/28 02:24:58;;;;;;;15.27;13.77;;;22.10;99.90;;;;;;5044445;28;21101;-87
2021/06/28 02:27:27;;;;;;;15.20;13.80;;;22.10;99.90;;;;;;5043154;28;20457;-89
2021/06/28 02:30:15;;;;;;;;;;;;;;;;;;;;;
2021/06/28 02:32:50;;;;;;;16.87;15.20;;;22.10;99.90;;;;;;5043914;28;20491;-87
2021/06/28 02:35:24;;;;;;;17.63;15.93;;;22.20;99.90;;;;;;5043054;28;20491;-87
2021/06/28 02:37:56;;;;;;;17.93;16.23;;;22.20;99.90;;;;;;5041387;28;20495;-86
2021/06/28 02:40:30;;;;;;;18.00;15.53;;;22.00;99.90;;;;;;5041372;28;20483;-87
2021/06/28 02:42:57;;;;;;;18.93;17.13;;;22.10;99.90;;;;;;5042011;28;20460;-87
2021/06/28 02:45:25;;;;;;;18.93;16.37;;;21.90;99.90;;;;;;5053596;28;20448;-88
2021/06/28 02:47:57;;;;;;;19.13;17.37;;;22.00;99.90;;;;;;5062413;28;20469;-89
2021/06/28 02:50:26;;;;;;;17.33;15.60;;;21.80;99.90;;;;;;5058428;28;20477;-87
2021/06/28 02:52:58;;;;;;;19.43;17.43;;;21.90;99.90;;;;;;5048003;28;20487;-86
2021/06/28 02:55:36;;;;;;;19.37;17.50;;;22.00;99.90;;;;;;5044941;28;20993;-84
2021/06/28 02:58:05;;;;;;;18.07;16.37;;;21.90;99.90;;;;;;5051556;28;20611;-90
2021/06/28 03:00:35;;;;;;;18.50;16.60;;;21.80;99.90;;;;;;5060421;28;20467;-88
2021/06/28 03:03:05;;;;;;;19.53;17.43;;;21.90;99.90;;;;;;5056455;28;20492;-86
2021/06/28 03:05:42;;;;;;;19.60;17.70;;;21.90;99.90;;;;;;5052220;28;20437;-90
2021/06/28 03:08:15;;;;;;;19.93;18.10;;;21.90;99.90;;;;;;5051440;28;20452;-89
2021/06/28 03:10:45;;;;;;;20.10;18.00;;;21.90;99.90;;;;;;5065603;28;20564;-88
2021/06/28 03:13:13;;;;;;;19.87;17.50;;;21.80;99.90;;;;;;5036828;28;20461;-86
2021/06/28 03:15:52;;;;;;;20.27;18.17;;;21.60;99.90;;;;;;5031615;28;20519;-88
2021/06/28 03:18:22;;;;;;;21.10;18.37;;;21.60;99.90;;;;;;5031098;28;20607;-87
2021/06/28 03:20:53;;;;;;;19.00;15.90;;;21.60;99.90;;;;;;5030124;28;20485;-87
2021/06/28 03:23:25;;;;;;;23.20;18.90;;;21.40;99.90;;;;;;5030040;28;20465;-88
2021/06/28 03:26:03;;;;;;;23.80;21.40;;;21.50;99.90;;;;;;5028941;28;20483;-86
2021/06/28 03:28:34;;;;;;;20.53;18.40;;;21.50;99.90;;;;;;5029297;28;20458;-90
2021/06/28 03:31:05;;;;;;;20.47;18.30;;;21.50;99.90;;;;;;5027711;28;20472;-85
2021/06/28 03:33:38;;;;;;;21.47;19.27;;;21.50;99.90;;;;;;5029520;28;20484;-86
2021/06/28 03:36:22;;;;;;;20.10;18.10;;;21.50;99.90;;;;;;5026887;28;20488;-87
2021/06/28 03:38:56;;;;;;;21.17;18.97;;;21.50;99.90;;;;;;5027810;28;20484;-87
2021/06/28 03:41:27;;;;;;;22.87;20.53;;;21.50;99.90;;;;;;5029764;28;20465;-85
2021/06/28 03:44:03;;;;;;;23.87;21.20;;;21.50;99.90;;;;;;5045623;28;20977;-88
2021/06/28 03:46:36;;;;;;;22.43;20.17;;;21.30;99.90;;;;;;5037903;28;20464;-87
2021/06/28 03:49:04;;;;;;;22.23;19.93;;;21.30;99.90;;;;;;5045485;28;20450;-88
2021/06/28 03:51:38;;;;;;;23.97;19.50;;;21.30;99.90;;;;;;5050203;28;20450;-85
2021/06/28 03:54:08;;;;;;;23.77;19.60;;;21.10;99.90;;;;;;5047413;28;20471;-88
2021/06/28 03:56:41;;;;;;;21.20;18.40;;;21.20;99.90;;;;;;5049462;28;20538;-89
2021/06/28 03:59:12;;;;;;;21.17;19.00;;;21.10;99.90;;;;;;5047011;28;20487;-88
2021/06/28 04:01:51;;;;;;;21.00;18.03;;;21.10;99.90;;;;;;5048851;28;20521;-88
2021/06/28 04:04:21;;;;;;;21.60;19.40;;;21.20;99.90;;;;;;5048911;28;20468;-85
2021/06/28 04:06:55;;;;;;;23.13;19.10;;;21.10;99.90;;;;;;5038357;28;20479;-86
2021/06/28 04:09:26;;;;;;;21.13;18.73;;;21.20;99.90;;;;;;5040555;28;21292;-85
2021/06/28 04:12:05;;;;;;;19.07;17.30;;;21.20;99.90;;;;;;5039808;28;20453;-88
2021/06/28 04:14:41;;;;;;;18.43;16.53;;;21.20;99.90;;;;;;5031000;28;20473;-87
2021/06/28 04:17:24;;;;;;;18.87;17.10;;;21.40;99.90;;;;;;5031187;28;20453;-86
2021/06/28 04:19:57;;;;;;;18.20;16.43;;;21.40;99.90;;;;;;5029335;28;20525;-86
2021/06/28 04:22:27;;;;;;;17.53;15.53;;;21.30;99.90;;;;;;5037592;28;20453;-88
2021/06/28 04:24:55;;;;;;;18.83;16.50;;;21.30;99.90;;;;;;5032372;28;20465;-86
2021/06/28 04:27:25;;;;;;;16.60;14.90;;;21.50;99.90;;;;;;5030041;28;20461;-87
2021/06/28 04:30:01;;;;;;;16.33;14.83;;;21.60;99.90;;;;;;5028741;28;20557;-90
2021/06/28 04:32:29;;;;;;;17.87;16.17;;;21.60;99.90;;;;;;5028837;28;20564;-86
2021/06/28 04:35:00;;;;;;;16.60;15.00;;;21.60;99.90;;;;;;5025026;28;20489;-85
2021/06/28 04:37:37;;;;;;;17.10;15.60;;;21.70;99.90;;;;;;5029256;28;20453;-88
2021/06/28 04:40:16;;;;;;;17.23;15.73;;;21.70;99.90;;;;;;5026773;28;20483;-85
2021/06/28 04:42:50;;;;;;;17.13;15.37;;;21.70;99.90;;;;;;5028453;28;20449;-85
2021/06/28 04:45:23;;;;;;;18.50;16.47;;;21.80;99.90;;;;;;5028120;28;20460;-86
2021/06/28 04:47:52;;;;;;;21.57;18.10;;;21.90;99.90;;;;;;5031813;28;20492;-88
2021/06/28 04:50:28;;;;;;;19.27;16.57;;;22.00;99.90;;;;;;5025428;28;20508;-87
2021/06/28 04:53:01;;;;;;;17.80;16.10;;;21.80;99.90;;;;;;5026745;28;20700;-87
2021/06/28 04:55:34;;;;;;;19.77;17.77;;;21.90;99.90;;;;;;5028233;28;20481;-87
2021/06/28 04:58:07;;;;;;;20.00;16.97;;;21.80;99.90;;;;;;5026170;28;21504;-88
2021/06/28 05:00:47;;;;;;;18.93;16.20;;;21.70;99.90;;;;;;5058902;28;20481;-86
2021/06/28 05:03:19;;;;;;;17.67;15.77;;;21.60;99.90;;;;;;5028081;28;20460;-90
2021/06/28 05:05:56;;;;;;;17.30;15.60;;;21.60;99.90;;;;;;5027832;28;20457;-87
2021/06/28 05:08:27;;;;;;;17.90;15.70;;;21.70;99.90;;;;;;5026040;28;20457;-89
2021/06/28 05:10:59;;;;;;;16.90;15.40;;;21.80;99.90;;;;;;5032520;28;20505;-86
2021/06/28 05:13:30;;;;;;;18.70;17.00;;;21.70;99.90;;;;;;5039025;28;21067;-89
2021/06/28 05:15:58;;;;;;;17.97;16.33;;;21.70;99.90;;;;;;5040601;28;20484;-87
2021/06/28 05:18:26;;;;;;;17.37;15.77;;;21.70;99.90;;;;;;5035571;28;20951;-89
2021/06/28 05:20:57;;;;;;;18.33;16.73;;;21.70;99.90;;;;;;5033896;28;20527;-86
2021/06/28 05:23:30;;;;;;;17.27;15.63;;;21.70;99.90;;;;;;5035228;28;20480;-86
2021/06/28 05:26:00;;;;;;;16.40;14.90;;;21.70;99.90;;;;;;5047696;28;21179;-87
2021/06/28 05:28:38;;;;;;;16.93;15.43;;;21.60;99.90;;;;;;5026493;28;20453;-88
2021/06/28 05:31:12;;;;;;;21.43;16.60;;;21.70;99.90;;;;;;5030849;28;20453;-85
2021/06/28 05:33:48;;;;;;;18.70;16.93;;;21.80;99.90;;;;;;5028920;28;20465;-88
2021/06/28 05:36:15;;;;;;;21.70;17.90;;;22.00;99.90;;;;;;5028507;28;20998;-88
2021/06/28 05:38:53;;;;;;;26.57;18.70;;;22.00;99.90;;;;;;5027488;28;20474;-86
2021/06/28 05:41:26;;;;;;;20.00;16.87;;;21.80;99.90;;;;;;5060268;28;20465;-88
2021/06/28 05:44:02;;;;;;;19.60;17.37;;;21.90;99.90;;;;;;5030991;28;20453;-86
2021/06/28 05:46:49;;;;;;;24.10;19.03;;;21.90;99.90;;;;;;5035482;28;20463;-86
2021/06/28 05:49:22;;;;;;;21.70;17.50;;;22.10;99.90;;;;;;5028302;28;20485;-85
2021/06/28 05:51:55;;;;;;;20.03;17.70;;;22.10;99.90;;;;;;5063707;28;20433;-86
2021/06/28 05:54:49;;;;;;;17.83;16.13;;;21.80;99.90;;;;;;5032095;28;20501;-87
2021/06/28 05:57:31;;;;;;;15.93;14.33;;;21.80;99.90;;;;;;5030598;28;20480;-88
2021/06/28 06:00:14;;;;;;;17.07;15.47;;;22.00;99.90;;;;;;5031062;28;20977;-88
2021/06/28 06:02:56;;;;;;;17.60;16.00;;;22.20;99.90;;;;;;5027232;28;20540;-88
2021/06/28 06:05:41;;;;;;;19.20;16.10;;;22.20;99.90;;;;;;5028457;28;20537;-91
2021/06/28 06:08:11;;;;;;;17.27;15.67;;;22.20;99.90;;;;;;5027073;28;20943;-88
2021/06/28 06:10:41;;;;;;;17.20;15.57;;;22.30;99.90;;;;;;5028335;28;20564;-88
2021/06/28 06:13:14;;;;;;;17.63;16.03;;;22.10;99.90;;;;;;5028010;28;20476;-86
2021/06/28 06:15:58;;;;;;;17.80;16.20;;;22.40;99.90;;;;;;5014815;28;20487;-87
2021/06/28 06:18:28;;;;;;;16.47;15.00;;;22.50;99.90;;;;;;5028655;28;20461;-90
2021/06/28 06:21:28;;;;;;;19.03;17.23;;;22.30;99.90;;;;;;5030011;28;20512;-86
2021/06/28 06:24:32;;;;;;;15.17;13.67;;;22.40;99.90;;;;;;5032161;28;20449;-88
2021/06/28 06:27:00;;;;;;;17.30;15.60;;;22.10;99.90;;;;;;5029413;28;20575;-86
2021/06/28 06:29:47;;;;;;;17.37;15.57;;;22.30;99.90;;;;;;5033500;28;20477;-88
2021/06/28 06:32:17;;;;;;;16.43;15.03;;;22.30;99.90;;;;;;5041480;28;20556;-88
2021/06/28 06:34:56;;;;;;;15.13;13.60;;;22.40;99.90;;;;;;5076551;28;20448;-88
2021/06/28 06:37:59;;;;;;;14.17;12.90;;;22.20;99.90;;;;;;5047231;28;20448;-89
2021/06/28 06:40:42;;;;;;;15.20;13.93;;;22.40;99.90;;;;;;5041010;28;20512;-88
2021/06/28 06:43:18;;;;;;;15.90;14.50;;;22.50;99.90;;;;;;5076397;28;20559;-85
2021/06/28 06:45:51;;;;;;;13.57;12.33;;;22.30;99.90;;;;;;5044181;28;20465;-90
2021/06/28 06:48:35;;;;;;;14.63;13.43;;;22.20;99.90;;;;;;5049753;28;20436;-89
2021/06/28 06:51:10;;;;;;;16.57;15.00;;;22.20;99.90;;;;;;5046584;28;20453;-84
2021/06/28 06:53:51;;;;;;;14.93;13.50;;;22.30;99.90;;;;;;5049701;28;20469;-87
2021/06/28 06:56:37;;;;;;;14.83;13.43;;;22.20;99.90;;;;;;5051853;28;20579;-86
2021/06/28 06:59:08;;;;;;;15.07;13.50;;;22.40;99.90;;;;;;5067716;28;20454;-89
2021/06/28 07:01:52;;;;;;;14.10;12.20;;;22.40;99.90;;;;;;4999257;28;20470;-89
2021/06/28 07:04:32;;;;;;;14.17;12.90;;;22.40;99.90;;;;;;4994648;28;20467;-87
2021/06/28 07:07:12;;;;;;;12.67;11.57;;;22.30;99.90;;;;;;4992397;28;20462;-89
2021/06/28 07:09:54;;;;;;;13.73;12.60;;;22.30;99.90;;;;;;5098068;22;20521;-86
2021/06/28 07:12:29;;;;;;;16.80;12.27;;;22.20;99.90;;;;;;5076388;28;20462;-87
2021/06/28 07:15:19;;;;;;;13.17;12.10;;;22.50;99.90;;;;;;5073293;28;20941;-89
2021/06/28 07:17:59;;;;;;;13.70;12.60;;;22.50;99.90;;;;;;5087462;28;20459;-86
2021/06/28 07:20:38;;;;;;;14.17;12.80;;;22.60;99.90;;;;;;5091283;28;20492;-87
2021/06/28 07:23:38;;;;;;;14.47;13.17;;;22.80;99.90;;;;;;5091883;28;20448;-86
2021/06/28 07:26:22;;;;;;;13.33;12.13;;;23.20;99.90;;;;;;5100043;28;20446;-86
2021/06/28 07:28:57;;;;;;;13.37;12.27;;;23.40;99.90;;;;;;5100152;28;20544;-87
2021/06/28 07:31:53;;;;;;;13.33;12.03;;;23.50;99.90;;;;;;5096931;28;20446;-86
2021/06/28 07:35:02;;;;;;;14.17;12.97;;;23.30;99.90;;;;;;5097603;28;20442;-85
2021/06/28 07:37:57;;;;;;;;;;;;;;;;;;;;;
2021/06/28 07:40:49;;;;;;;15.33;13.93;;;23.30;99.90;;;;;;5099672;28;20784;-88
2021/06/28 07:43:34;;;;;;;14.20;12.90;;;23.80;99.90;;;;;;5095157;28;20429;-89
2021/06/28 07:46:26;;;;;;;;;;;;;;;;;;;;;
2021/06/28 07:49:19;;;;;;;14.60;13.20;;;24.00;99.90;;;;;;5110064;28;20455;-89
2021/06/28 07:52:14;;;;;;;;;;;;;;;;;;;;;
2021/06/28 07:54:48;;;;;;;14.33;13.03;;;24.10;99.90;;;;;;5114038;28;20447;-88
2021/06/28 07:57:36;;;;;;;14.60;13.40;;;24.10;99.90;;;;;;5111775;28;20491;-89
2021/06/28 08:00:31;;;;;;;13.27;12.07;;;24.00;99.90;;;;;;5110339;28;20478;-88
2021/06/28 08:08:12;;;;;;;12.77;11.77;;;24.20;99.90;;;;;;4956077;28;20523;-88
2021/06/28 08:11:26;;;;;;;12.50;11.40;;;24.50;99.90;;;;;;4994687;28;20474;-86
2021/06/28 08:53:42;;;;;;;11.30;10.40;;;27.80;93.00;;;;;;3673522;23;20527;-89
2021/06/28 08:56:34;;;;;;;11.13;10.03;;;27.40;93.50;;;;;;4990063;28;20527;-89
2021/06/28 08:59:48;;;;;;;9.80;8.90;;;27.10;94.70;;;;;;4990968;28;20451;-87
2021/06/28 09:02:57;;;;;;;9.60;8.90;;;27.50;93.80;;;;;;4978918;28;20444;-88
2021/06/28 09:06:19;;;;;;;10.27;9.47;;;27.70;93.20;;;;;;4980499;28;20468;-89
2021/06/28 09:09:12;;;;;;;10.10;9.40;;;27.40;93.70;;;;;;4969637;28;20567;-86
2021/06/28 09:11:59;;;;;;;10.10;9.30;;;27.40;93.60;;;;;;4976555;28;20468;-88
2021/06/28 09:14:58;;;;;;;9.60;8.90;;;27.30;93.80;;;;;;4959685;28;20443;-86
2021/06/28 09:17:43;;;;;;;9.50;8.63;;;27.60;93.70;;;;;;4974081;28;20491;-87
2021/06/28 09:20:27;;;;;;;9.23;8.53;;;27.70;92.80;;;;;;4990871;28;20444;-88
2021/06/28 09:23:28;;;;;;;9.43;8.73;;;27.40;93.00;;;;;;4971353;28;20448;-86
2021/06/28 09:26:14;;;;;;;9.03;8.40;;;27.00;93.80;;;;;;4977467;28;20456;-88
2021/06/28 09:28:54;;;;;;;9.03;8.33;;;27.60;93.20;;;;;;4972447;28;20471;-88
2021/06/28 09:32:20;;;;;;;10.60;7.73;;;28.00;92.30;;;;;;4956973;28;20443;-86
2021/06/28 09:35:11;;;;;;;8.93;8.30;;;28.70;90.70;;;;;;4972060;28;20475;-87
2021/06/28 09:37:55;;;;;;;8.73;8.13;;;29.60;87.80;;;;;;4905268;29;20562;-86
2021/06/28 09:41:25;;;;;;;8.77;7.97;;;29.40;87.30;;;;;;5195784;27;20522;-88
2021/06/28 09:44:22;;;;;;;;;;;;;;;;;;;;;
2021/06/28 09:47:21;;;;;;;8.90;8.00;;;28.30;90.00;;;;;;5175086;27;20444;-91
2021/06/28 09:50:24;;;;;;;8.67;7.97;;;28.30;90.40;;;;;;5162244;27;20479;-88
2021/06/28 09:52:55;;;;;;;9.90;9.10;;;28.20;90.60;;;;;;5139157;27;20444;-87
2021/06/28 09:55:42;;;;;;;8.50;7.70;;;28.50;90.60;;;;;;5138300;27;20531;-86
2021/06/28 09:58:25;;;;;;;10.43;8.63;;;28.50;90.60;;;;;;5136003;27;21118;-87
2021/06/28 10:01:02;;;;;;;10.47;9.50;;;28.40;90.60;;;;;;5152488;27;20478;-87
2021/06/28 10:04:04;;;;;;;9.80;9.10;;;28.20;90.90;;;;;;5148402;27;20417;-89
2021/06/28 10:06:37;;;;;;;8.80;8.00;;;27.90;91.60;;;;;;5140127;27;20448;-88
2021/06/28 10:09:15;;;;;;;9.00;8.37;;;27.60;92.70;;;;;;5138925;27;20496;-86
2021/06/28 10:11:52;;;;;;;9.23;8.43;;;28.20;91.40;;;;;;5137867;27;20486;-86
2021/06/28 10:14:25;;;;;;;16.30;9.50;;;28.10;91.40;;;;;;5139079;27;20459;-87
2021/06/28 10:17:02;;;;;;;8.07;7.50;;;29.30;90.20;;;;;;5150989;27;20700;-89
2021/06/28 10:19:37;;;;;;;8.97;8.23;;;30.80;85.20;;;;;;5141102;27;21083;-86
2021/06/28 10:22:05;;;;;;;9.47;8.50;;;31.50;81.10;;;;;;5139822;27;20460;-87
2021/06/28 10:24:57;;;;;;;9.50;8.80;;;31.90;79.20;;;;;;5143922;27;20436;-85
2021/06/28 10:27:30;;;;;;;8.73;7.93;;;31.80;78.20;;;;;;5150948;27;20466;-86
2021/06/28 10:30:11;;;;;;;8.03;7.43;;;32.10;77.70;;;;;;5149048;27;20546;-86
2021/06/28 10:32:54;;;;;;;8.50;7.70;;;32.10;76.50;;;;;;5154746;27;20469;-87
2021/06/28 10:35:36;;;;;;;8.67;7.63;;;32.00;77.30;;;;;;5159595;27;20464;-90
2021/06/28 10:38:22;;;;;;;8.57;7.87;;;31.80;77.10;;;;;;5157738;27;20473;-88
2021/06/28 10:40:55;;;;;;;7.90;7.30;;;31.50;75.60;;;;;;5154777;27;20479;-91
2021/06/28 10:43:38;;;;;;;7.03;6.53;;;30.80;78.50;;;;;;5156111;27;20436;-89
2021/06/28 10:46:32;;;;;;;7.17;6.67;;;30.50;77.10;;;;;;5157675;27;20506;-87
2021/06/28 10:49:03;;;;;;;7.17;6.57;;;29.80;77.50;;;;;;5152405;27;20674;-87
2021/06/28 10:52:07;;;;;;;6.63;6.23;;;29.20;80.10;;;;;;5131872;27;20441;-86
2021/06/28 10:54:44;;;;;;;14.67;10.00;;;28.70;81.90;;;;;;5119448;27;20478;-88
2021/06/28 10:57:20;;;;;;;15.90;11.00;;;28.30;88.30;;;;;;5126234;27;20456;-87
2021/06/28 10:59:57;;;;;;;13.40;9.63;;;28.00;93.40;;;;;;5127829;27;20556;-86
2021/06/28 11:02:42;;;;;;;4.80;4.50;;;27.10;99.30;;;;;;5126538;27;20540;-86
2021/06/28 11:05:18;;;;;;;4.50;4.10;;;26.30;96.50;;;;;;5127663;27;20487;-87
2021/06/28 11:07:50;;;;;;;6.10;4.40;;;26.10;97.90;;;;;;5139316;27;20458;-86
2021/06/28 11:10:42;;;;;;;4.53;4.13;;;25.90;98.20;;;;;;5124522;27;20483;-86
2021/06/28 11:13:56;;;;;;;4.27;3.80;;;25.80;97.10;;;;;;5123200;27;20537;-87
2021/06/28 11:16:34;;;;;;;4.30;3.93;;;26.20;97.40;;;;;;5123864;27;20467;-87
2021/06/28 11:19:49;;;;;;;5.17;4.67;;;26.40;97.60;;;;;;5122966;27;20790;-87
2021/06/28 11:22:44;;;;;;;4.30;3.90;;;26.40;97.80;;;;;;5096551;27;20437;-87
2021/06/28 11:25:28;;;;;;;4.77;4.37;;;26.60;97.20;;;;;;5125522;27;20469;-86
2021/06/28 11:28:20;;;;;;;4.90;4.40;;;26.90;97.20;;;;;;5141787;27;20464;-86
2021/06/28 11:31:05;;;;;;;4.40;4.00;;;27.50;97.30;;;;;;5142395;27;20444;-86
2021/06/28 11:34:17;;;;;;;5.40;4.20;;;28.20;96.20;;;;;;5130333;27;20456;-87
2021/06/28 11:37:03;;;;;;;4.27;3.97;;;28.90;95.20;;;;;;5136742;27;20467;-90
2021/06/28 11:39:56;;;;;;;4.80;4.40;;;30.00;94.90;;;;;;5136898;27;20464;-89
2021/06/28 11:42:33;;;;;;;4.67;4.37;;;30.90;92.80;;;;;;5121667;27;20448;-86
2021/06/28 11:45:12;;;;;;;5.13;4.63;;;31.60;88.10;;;;;;5136201;27;20440;-90
2021/06/28 11:48:10;;;;;;;5.47;5.17;;;31.50;86.20;;;;;;5150053;27;20425;-87
2021/06/28 11:50:47;;;;;;;4.60;4.30;;;31.30;87.20;;;;;;5136866;27;20524;-87
2021/06/28 11:53:23;;;;;;;5.60;5.10;;;31.30;89.30;;;;;;5134765;27;20479;-85
2021/06/28 11:56:18;;;;;;;4.77;4.47;;;31.90;87.30;;;;;;5132965;27;20449;-90
2021/06/28 11:59:19;;;;;;;4.80;4.50;;;32.30;80.00;;;;;;5147872;27;20482;-88
2021/06/28 12:01:58;;;;;;;5.50;5.00;;;31.90;83.60;;;;;;5138934;27;20448;-86
2021/06/28 12:04:34;;;;;;;6.10;5.60;;;31.50;84.50;;;;;;5118164;27;20464;-86
2021/06/28 12:07:07;;;;;;;6.13;5.63;;;30.70;85.40;;;;;;5115287;27;20769;-86
2021/06/28 12:09:39;;;;;;;6.10;5.70;;;30.20;86.20;;;;;;5114857;27;21056;-88
2021/06/28 12:12:15;;;;;;;5.80;5.40;;;30.50;84.60;;;;;;5116343;27;20445;-88
2021/06/28 12:14:49;;;;;;;6.67;6.00;;;30.90;81.20;;;;;;5118205;27;20436;-85
2021/06/28 12:17:23;;;;;;;5.93;5.53;;;30.40;83.30;;;;;;5113054;27;20591;-86
2021/06/28 12:20:07;;;;;;;6.77;6.27;;;29.80;87.30;;;;;;5117856;27;20486;-85
2021/06/28 12:22:38;;;;;;;6.63;6.03;;;29.50;90.10;;;;;;5116671;27;20977;-87
2021/06/28 12:25:14;;;;;;;5.80;5.47;;;28.90;90.90;;;;;;5119517;27;20507;-86
2021/06/28 12:27:52;;;;;;;6.60;6.13;;;28.60;91.20;;;;;;5119832;27;20509;-86
2021/06/28 12:30:37;;;;;;;5.87;5.47;;;28.40;91.20;;;;;;5122229;27;20468;-88
2021/06/28 12:33:23;;;;;;;7.23;6.50;;;28.40;91.50;;;;;;5125269;27;20460;-90
2021/06/28 12:36:06;;;;;;;6.50;6.03;;;28.20;91.80;;;;;;5123068;27;20444;-89
2021/06/28 12:38:56;;;;;;;6.47;5.97;;;28.20;91.70;;;;;;5127729;27;20441;-92
2021/06/28 12:41:43;;;;;;;6.03;5.53;;;28.20;91.90;;;;;;5121654;27;20448;-91
2021/06/28 12:44:21;;;;;;;6.90;6.30;;;28.20;92.20;;;;;;5115746;27;20529;-89
2021/06/28 12:47:04;;;;;;;6.47;6.00;;;28.10;92.40;;;;;;5121185;27;20449;-86
2021/06/28 12:49:42;;;;;;;6.43;5.83;;;28.00;92.90;;;;;;5120907;27;20460;-88
2021/06/28 12:52:28;;;;;;;6.13;5.73;;;27.80;93.00;;;;;;5118068;27;20452;-87
2021/06/28 12:55:18;;;;;;;5.77;5.33;;;27.70;92.80;;;;;;5114303;27;20468;-88
2021/06/28 12:58:23;;;;;;;6.07;5.57;;;27.70;92.30;;;;;;5119469;27;20823;-86
2021/06/28 13:01:45;;;;;;;6.23;5.73;;;27.50;92.10;;;;;;5115152;27;20506;-86
2021/06/28 13:04:39;;;;;;;5.73;5.33;;;28.10;91.00;;;;;;5034201;27;20546;-84
2021/06/28 13:08:09;;;;;;;6.90;6.20;;;27.80;91.90;;;;;;5103974;27;20425;-85
2021/06/28 13:11:41;;;;;;;6.80;6.30;;;27.60;93.30;;;;;;5110471;27;20448;-87
2021/06/28 13:14:35;;;;;;;7.17;6.57;;;27.50;93.80;;;;;;5040509;27;20449;-87
2021/06/28 13:23:44;;;;;;;6.83;6.27;;;27.60;94.40;;;;;;5070914;28;20564;-84
2021/06/28 13:26:59;;;;;;;6.83;6.13;;;27.80;94.60;;;;;;5130710;27;20511;-86
2021/06/28 13:30:41;;;;;;;6.60;6.10;;;28.30;93.90;;;;;;5136057;27;20548;-89
2021/06/28 13:41:01;;;;;;;6.30;5.90;;;29.50;88.80;;;;;;5119836;27;20525;-85
2021/06/28 13:44:15;;;;;;;5.40;5.00;;;30.00;86.00;;;;;;5056528;28;20444;-85
2021/06/28 13:47:27;;;;;;;;;;;;;;;;;;;;;
2021/06/28 13:50:11;;;;;;;;;;;;;;;;;;;;;
2021/06/28 13:53:46;;;;;;;;;;;;;;;;;;;;;
2021/06/28 13:56:12;;;;;;;5.50;5.20;;;30.10;84.40;;;;;;5130200;27;20429;-84
2021/06/28 13:58:44;;;;;;;5.47;5.07;;;29.70;85.90;;;;;;5126312;28;20487;-85
2021/06/28 14:01:46;;;;;;;5.50;5.10;;;29.50;87.00;;;;;;5125977;28;20501;-85
2021/06/28 14:04:19;;;;;;;5.23;4.73;;;30.30;84.90;;;;;;5129717;27;20454;-85
2021/06/28 14:06:50;;;;;;;5.77;5.27;;;30.00;84.70;;;;;;5141424;27;20483;-86
2021/06/28 14:09:20;;;;;;;5.90;5.13;;;30.20;85.00;;;;;;5144631;27;20476;-87
2021/06/28 14:12:43;;;;;;;4.30;4.00;;;30.20;85.10;;;;;;5080740;28;20423;-84
2021/06/28 14:15:54;;;;;;;5.70;3.60;;;29.80;82.30;;;;;;5075499;28;20478;-88
2021/06/28 14:18:32;;;;;;;4.60;3.60;;;29.80;78.40;;;;;;5093337;28;20531;-85
2021/06/28 14:21:18;;;;;;;5.40;4.13;;;30.10;75.10;;;;;;5083228;28;20470;-89
2021/06/28 14:24:00;;;;;;;3.07;2.87;;;30.00;74.80;;;;;;5086422;28;20467;-84
2021/06/28 14:26:52;;;;;;;3.67;3.47;;;30.00;72.50;;;;;;5075057;28;20454;-87
2021/06/28 14:29:33;;;;;;;4.30;4.00;;;30.00;73.70;;;;;;5088776;28;20483;-87
2021/06/28 15:22:38;;;;;;;2.37;2.17;;;29.30;74.60;;;;;;4702877;28;10002226;-85
2021/06/28 15:25:47;;;;;;;2.77;2.20;;;29.30;73.60;;;;;;5035539;28;20554;-84
2021/06/28 15:28:39;;;;;;;2.67;2.47;;;29.20;73.60;;;;;;4999774;28;20484;-88
2021/06/28 15:31:24;;;;;;;2.40;2.20;;;29.20;73.00;;;;;;4995280;28;20455;-90
2021/06/28 15:34:24;;;;;;;2.17;2.07;;;29.20;73.40;;;;;;4999610;28;20450;-90
2021/06/28 15:37:08;;;;;;;1.80;1.70;;;29.20;72.60;;;;;;4997756;28;20447;-91
2021/06/28 15:40:07;;;;;;;5.40;2.00;;;29.20;72.70;;;;;;4982758;28;20471;-89
2021/06/28 15:43:15;;;;;;;2.03;1.90;;;29.20;71.40;;;;;;4981466;28;20435;-89
2021/06/28 15:46:09;;;;;;;2.20;2.10;;;29.20;71.00;;;;;;4996417;28;20509;-88
2021/06/28 15:49:18;;;;;;;2.00;1.77;;;29.40;70.00;;;;;;4984434;28;20483;-89